sensor_id;sensor_type;location;lat;lon;timestamp;P1;durP1;ratioP1;P2;durP2;ratioP2
9934;SDS011;5006;41.828;23.478;2022-11-18T00:00:15;13.07;;;10.73;;
9934;SDS011;5006;41.828;23.478;2022-11-18T00:01:20;16.63;;;14.27;;
9934;SDS011;5006;41.828;23.478;2022-11-18T00:02:26;31.52;;;22.67;;
9934;SDS011;5006;41.828;23.478;2022-11-18T00:03:32;31.40;;;24.60;;
9934;SDS011;5006;41.828;23.478;2022-11-18T00:04:38;27.75;;;21.15;;
9934;SDS011;5006;41.828;23.478;2022-11-18T00:05:50;26.50;;;20.40;;
9934;SDS011;5006;41.828;23.478;2022-11-18T00:06:55;26.17;;;20.30;;
9934;SDS011;5006;41.828;23.478;2022-11-18T00:08:01;163.07;;;26.85;;
9934;SDS011;5006;41.828;23.478;2022-11-18T00:09:07;260.38;;;32.28;;
9934;SDS011;5006;41.828;23.478;2022-11-18T00:10:12;267.15;;;31.27;;
9934;SDS011;5006;41.828;23.478;2022-11-18T00:11:18;277.10;;;28.52;;
9934;SDS011;5006;41.828;23.478;2022-11-18T00:12:39;87.30;;;20.55;;
9934;SDS011;5006;41.828;23.478;2022-11-18T00:14:02;26.33;;;16.10;;
9934;SDS011;5006;41.828;23.478;2022-11-18T00:15:23;19.42;;;14.25;;
9934;SDS011;5006;41.828;23.478;2022-11-18T00:16:28;18.48;;;11.93;;
9934;SDS011;5006;41.828;23.478;2022-11-18T00:17:34;11.90;;;8.10;;
9934;SDS011;5006;41.828;23.478;2022-11-18T00:18:39;10.73;;;8.13;;
9934;SDS011;5006;41.828;23.478;2022-11-18T00:19:45;13.35;;;9.73;;
9934;SDS011;5006;41.828;23.478;2022-11-18T00:20:50;15.02;;;9.52;;
9934;SDS011;5006;41.828;23.478;2022-11-18T00:21:55;53.75;;;12.45;;
9934;SDS011;5006;41.828;23.478;2022-11-18T00:23:00;47.85;;;12.23;;
9934;SDS011;5006;41.828;23.478;2022-11-18T00:24:06;79.85;;;12.77;;
9934;SDS011;5006;41.828;23.478;2022-11-18T00:25:10;96.68;;;14.25;;
9934;SDS011;5006;41.828;23.478;2022-11-18T00:26:16;113.38;;;14.27;;
9934;SDS011;5006;41.828;23.478;2022-11-18T00:27:21;81.35;;;13.98;;
9934;SDS011;5006;41.828;23.478;2022-11-18T00:28:27;132.65;;;16.02;;
9934;SDS011;5006;41.828;23.478;2022-11-18T00:29:32;125.68;;;18.95;;
9934;SDS011;5006;41.828;23.478;2022-11-18T00:30:37;151.23;;;21.13;;
9934;SDS011;5006;41.828;23.478;2022-11-18T00:31:42;97.80;;;17.05;;
9934;SDS011;5006;41.828;23.478;2022-11-18T00:32:48;39.17;;;10.95;;
9934;SDS011;5006;41.828;23.478;2022-11-18T00:33:54;28.25;;;11.02;;
9934;SDS011;5006;41.828;23.478;2022-11-18T00:34:59;25.45;;;10.32;;
9934;SDS011;5006;41.828;23.478;2022-11-18T00:36:04;13.68;;;7.18;;
9934;SDS011;5006;41.828;23.478;2022-11-18T00:37:12;9.70;;;6.05;;
9934;SDS011;5006;41.828;23.478;2022-11-18T00:38:16;7.00;;;6.15;;
9934;SDS011;5006;41.828;23.478;2022-11-18T00:39:22;8.10;;;6.72;;
9934;SDS011;5006;41.828;23.478;2022-11-18T00:40:26;7.30;;;6.13;;
9934;SDS011;5006;41.828;23.478;2022-11-18T00:41:32;12.57;;;8.95;;
9934;SDS011;5006;41.828;23.478;2022-11-18T00:42:51;9.10;;;8.20;;
9934;SDS011;5006;41.828;23.478;2022-11-18T00:43:56;21.52;;;11.02;;
9934;SDS011;5006;41.828;23.478;2022-11-18T00:45:04;266.15;;;29.13;;
9934;SDS011;5006;41.828;23.478;2022-11-18T00:46:09;234.63;;;28.33;;
9934;SDS011;5006;41.828;23.478;2022-11-18T00:47:16;104.95;;;19.92;;
9934;SDS011;5006;41.828;23.478;2022-11-18T00:48:21;108.75;;;23.00;;
9934;SDS011;5006;41.828;23.478;2022-11-18T00:49:28;251.82;;;26.33;;
9934;SDS011;5006;41.828;23.478;2022-11-18T00:50:33;128.32;;;22.75;;
9934;SDS011;5006;41.828;23.478;2022-11-18T00:51:39;80.07;;;16.17;;
9934;SDS011;5006;41.828;23.478;2022-11-18T00:52:44;37.75;;;8.75;;
9934;SDS011;5006;41.828;23.478;2022-11-18T00:53:49;48.35;;;10.98;;
9934;SDS011;5006;41.828;23.478;2022-11-18T00:54:54;40.78;;;13.25;;
9934;SDS011;5006;41.828;23.478;2022-11-18T00:56:00;37.20;;;12.48;;
9934;SDS011;5006;41.828;23.478;2022-11-18T00:57:05;13.70;;;7.97;;
9934;SDS011;5006;41.828;23.478;2022-11-18T00:58:10;66.50;;;9.85;;
9934;SDS011;5006;41.828;23.478;2022-11-18T00:59:17;277.52;;;21.42;;
9934;SDS011;5006;41.828;23.478;2022-11-18T01:00:22;245.15;;;19.83;;
9934;SDS011;5006;41.828;23.478;2022-11-18T01:01:27;207.02;;;20.90;;
9934;SDS011;5006;41.828;23.478;2022-11-18T01:02:33;279.55;;;22.45;;
9934;SDS011;5006;41.828;23.478;2022-11-18T01:03:37;237.98;;;21.38;;
9934;SDS011;5006;41.828;23.478;2022-11-18T01:04:45;197.55;;;18.30;;
9934;SDS011;5006;41.828;23.478;2022-11-18T01:05:50;157.98;;;17.27;;
9934;SDS011;5006;41.828;23.478;2022-11-18T01:06:55;186.80;;;18.38;;
9934;SDS011;5006;41.828;23.478;2022-11-18T01:08:00;136.35;;;15.30;;
9934;SDS011;5006;41.828;23.478;2022-11-18T01:09:05;100.25;;;15.50;;
9934;SDS011;5006;41.828;23.478;2022-11-18T01:10:11;133.68;;;16.35;;
9934;SDS011;5006;41.828;23.478;2022-11-18T01:11:16;121.55;;;15.82;;
9934;SDS011;5006;41.828;23.478;2022-11-18T01:12:39;207.32;;;21.10;;
9934;SDS011;5006;41.828;23.478;2022-11-18T01:14:03;236.50;;;24.77;;
9934;SDS011;5006;41.828;23.478;2022-11-18T01:15:09;134.38;;;20.30;;
9934;SDS011;5006;41.828;23.478;2022-11-18T01:16:16;115.70;;;17.77;;
9934;SDS011;5006;41.828;23.478;2022-11-18T01:17:22;120.15;;;17.65;;
9934;SDS011;5006;41.828;23.478;2022-11-18T01:18:29;110.07;;;17.38;;
9934;SDS011;5006;41.828;23.478;2022-11-18T01:19:33;107.40;;;16.60;;
9934;SDS011;5006;41.828;23.478;2022-11-18T01:20:41;129.40;;;16.33;;
9934;SDS011;5006;41.828;23.478;2022-11-18T01:21:46;106.15;;;17.10;;
9934;SDS011;5006;41.828;23.478;2022-11-18T01:22:52;103.63;;;16.90;;
9934;SDS011;5006;41.828;23.478;2022-11-18T01:23:57;132.18;;;21.85;;
9934;SDS011;5006;41.828;23.478;2022-11-18T01:25:03;117.43;;;22.38;;
9934;SDS011;5006;41.828;23.478;2022-11-18T01:26:08;78.60;;;15.63;;
9934;SDS011;5006;41.828;23.478;2022-11-18T01:27:16;71.50;;;12.23;;
9934;SDS011;5006;41.828;23.478;2022-11-18T01:28:22;65.75;;;12.25;;
9934;SDS011;5006;41.828;23.478;2022-11-18T01:29:26;66.30;;;12.52;;
9934;SDS011;5006;41.828;23.478;2022-11-18T01:30:32;62.13;;;15.75;;
9934;SDS011;5006;41.828;23.478;2022-11-18T01:31:37;78.22;;;16.10;;
9934;SDS011;5006;41.828;23.478;2022-11-18T01:32:43;77.10;;;18.33;;
9934;SDS011;5006;41.828;23.478;2022-11-18T01:33:48;72.65;;;17.70;;
9934;SDS011;5006;41.828;23.478;2022-11-18T01:34:54;58.45;;;12.95;;
9934;SDS011;5006;41.828;23.478;2022-11-18T01:35:59;68.25;;;12.35;;
9934;SDS011;5006;41.828;23.478;2022-11-18T01:37:05;91.72;;;15.38;;
9934;SDS011;5006;41.828;23.478;2022-11-18T01:38:11;102.43;;;17.95;;
9934;SDS011;5006;41.828;23.478;2022-11-18T01:39:18;72.05;;;18.25;;
9934;SDS011;5006;41.828;23.478;2022-11-18T01:40:24;113.38;;;20.60;;
9934;SDS011;5006;41.828;23.478;2022-11-18T01:41:32;79.80;;;19.13;;
9934;SDS011;5006;41.828;23.478;2022-11-18T01:42:36;42.83;;;12.68;;
9934;SDS011;5006;41.828;23.478;2022-11-18T01:43:50;55.20;;;14.27;;
9934;SDS011;5006;41.828;23.478;2022-11-18T01:45:03;72.07;;;16.38;;
9934;SDS011;5006;41.828;23.478;2022-11-18T01:46:22;50.45;;;15.45;;
9934;SDS011;5006;41.828;23.478;2022-11-18T01:47:29;38.40;;;14.77;;
9934;SDS011;5006;41.828;23.478;2022-11-18T01:48:37;51.67;;;15.77;;
9934;SDS011;5006;41.828;23.478;2022-11-18T01:49:43;59.42;;;15.80;;
9934;SDS011;5006;41.828;23.478;2022-11-18T01:50:50;39.03;;;14.05;;
9934;SDS011;5006;41.828;23.478;2022-11-18T01:52:00;50.25;;;15.15;;
9934;SDS011;5006;41.828;23.478;2022-11-18T01:53:06;38.25;;;13.25;;
9934;SDS011;5006;41.828;23.478;2022-11-18T01:54:16;29.13;;;11.13;;
9934;SDS011;5006;41.828;23.478;2022-11-18T01:55:28;45.08;;;12.35;;
9934;SDS011;5006;41.828;23.478;2022-11-18T01:56:38;55.33;;;13.20;;
9934;SDS011;5006;41.828;23.478;2022-11-18T01:57:47;52.85;;;13.45;;
9934;SDS011;5006;41.828;23.478;2022-11-18T01:58:55;66.78;;;14.48;;
9934;SDS011;5006;41.828;23.478;2022-11-18T02:00:04;54.28;;;12.73;;
9934;SDS011;5006;41.828;23.478;2022-11-18T02:01:10;79.63;;;12.88;;
9934;SDS011;5006;41.828;23.478;2022-11-18T02:02:16;105.50;;;14.50;;
9934;SDS011;5006;41.828;23.478;2022-11-18T02:03:21;99.72;;;14.15;;
9934;SDS011;5006;41.828;23.478;2022-11-18T02:04:29;119.00;;;14.45;;
9934;SDS011;5006;41.828;23.478;2022-11-18T02:05:34;95.90;;;14.52;;
9934;SDS011;5006;41.828;23.478;2022-11-18T02:06:41;81.00;;;13.30;;
9934;SDS011;5006;41.828;23.478;2022-11-18T02:07:48;60.25;;;11.05;;
9934;SDS011;5006;41.828;23.478;2022-11-18T02:08:54;62.78;;;12.18;;
9934;SDS011;5006;41.828;23.478;2022-11-18T02:10:00;82.05;;;11.80;;
9934;SDS011;5006;41.828;23.478;2022-11-18T02:11:08;63.35;;;11.45;;
9934;SDS011;5006;41.828;23.478;2022-11-18T02:12:36;44.03;;;7.72;;
9934;SDS011;5006;41.828;23.478;2022-11-18T02:13:41;49.53;;;8.38;;
9934;SDS011;5006;41.828;23.478;2022-11-18T02:14:46;33.60;;;6.85;;
9934;SDS011;5006;41.828;23.478;2022-11-18T02:15:54;27.70;;;6.93;;
9934;SDS011;5006;41.828;23.478;2022-11-18T02:17:12;39.33;;;10.05;;
9934;SDS011;5006;41.828;23.478;2022-11-18T02:18:27;66.45;;;12.25;;
9934;SDS011;5006;41.828;23.478;2022-11-18T02:20:00;52.00;;;11.70;;
9934;SDS011;5006;41.828;23.478;2022-11-18T02:21:20;47.50;;;11.38;;
9934;SDS011;5006;41.828;23.478;2022-11-18T02:22:41;37.50;;;10.75;;
9934;SDS011;5006;41.828;23.478;2022-11-18T02:25:32;43.88;;;10.55;;
9934;SDS011;5006;41.828;23.478;2022-11-18T02:26:55;48.63;;;11.00;;
9934;SDS011;5006;41.828;23.478;2022-11-18T02:28:30;40.08;;;10.18;;
9934;SDS011;5006;41.828;23.478;2022-11-18T02:29:43;24.65;;;8.35;;
9934;SDS011;5006;41.828;23.478;2022-11-18T02:30:52;44.85;;;10.50;;
9934;SDS011;5006;41.828;23.478;2022-11-18T02:32:03;68.32;;;12.52;;
9934;SDS011;5006;41.828;23.478;2022-11-18T02:33:16;57.53;;;11.23;;
9934;SDS011;5006;41.828;23.478;2022-11-18T02:34:34;73.07;;;11.00;;
9934;SDS011;5006;41.828;23.478;2022-11-18T02:35:45;44.67;;;9.15;;
9934;SDS011;5006;41.828;23.478;2022-11-18T02:36:56;43.10;;;8.90;;
9934;SDS011;5006;41.828;23.478;2022-11-18T02:38:07;64.03;;;9.88;;
9934;SDS011;5006;41.828;23.478;2022-11-18T02:39:15;41.28;;;9.20;;
9934;SDS011;5006;41.828;23.478;2022-11-18T02:40:27;96.72;;;12.23;;
9934;SDS011;5006;41.828;23.478;2022-11-18T02:41:35;109.25;;;15.15;;
9934;SDS011;5006;41.828;23.478;2022-11-18T02:42:44;107.28;;;13.68;;
9934;SDS011;5006;41.828;23.478;2022-11-18T02:44:00;76.85;;;10.40;;
9934;SDS011;5006;41.828;23.478;2022-11-18T02:45:11;86.00;;;11.35;;
9934;SDS011;5006;41.828;23.478;2022-11-18T02:46:22;76.80;;;10.35;;
9934;SDS011;5006;41.828;23.478;2022-11-18T02:47:32;62.30;;;8.60;;
9934;SDS011;5006;41.828;23.478;2022-11-18T02:48:42;87.70;;;11.63;;
9934;SDS011;5006;41.828;23.478;2022-11-18T02:49:51;72.93;;;9.85;;
9934;SDS011;5006;41.828;23.478;2022-11-18T02:51:01;73.18;;;10.35;;
9934;SDS011;5006;41.828;23.478;2022-11-18T02:52:10;97.68;;;12.55;;
9934;SDS011;5006;41.828;23.478;2022-11-18T02:53:19;73.45;;;9.50;;
9934;SDS011;5006;41.828;23.478;2022-11-18T02:54:24;90.10;;;11.23;;
9934;SDS011;5006;41.828;23.478;2022-11-18T02:55:32;108.47;;;11.52;;
9934;SDS011;5006;41.828;23.478;2022-11-18T02:56:39;76.32;;;9.77;;
9934;SDS011;5006;41.828;23.478;2022-11-18T02:57:46;69.97;;;10.05;;
9934;SDS011;5006;41.828;23.478;2022-11-18T02:58:52;51.35;;;8.07;;
9934;SDS011;5006;41.828;23.478;2022-11-18T02:59:57;48.60;;;7.53;;
9934;SDS011;5006;41.828;23.478;2022-11-18T03:01:03;47.65;;;7.75;;
9934;SDS011;5006;41.828;23.478;2022-11-18T03:02:10;58.35;;;9.30;;
9934;SDS011;5006;41.828;23.478;2022-11-18T03:03:22;45.53;;;8.13;;
9934;SDS011;5006;41.828;23.478;2022-11-18T03:04:30;48.25;;;7.03;;
9934;SDS011;5006;41.828;23.478;2022-11-18T03:05:38;42.60;;;6.57;;
9934;SDS011;5006;41.828;23.478;2022-11-18T03:06:51;55.42;;;6.25;;
9934;SDS011;5006;41.828;23.478;2022-11-18T03:08:01;53.38;;;7.00;;
9934;SDS011;5006;41.828;23.478;2022-11-18T03:09:13;88.82;;;8.95;;
9934;SDS011;5006;41.828;23.478;2022-11-18T03:10:21;102.80;;;7.93;;
9934;SDS011;5006;41.828;23.478;2022-11-18T03:11:32;54.53;;;6.38;;
9934;SDS011;5006;41.828;23.478;2022-11-18T03:12:40;42.10;;;6.07;;
9934;SDS011;5006;41.828;23.478;2022-11-18T03:13:54;44.15;;;5.65;;
9934;SDS011;5006;41.828;23.478;2022-11-18T03:15:15;65.60;;;7.78;;
9934;SDS011;5006;41.828;23.478;2022-11-18T03:16:30;57.22;;;6.43;;
9934;SDS011;5006;41.828;23.478;2022-11-18T03:17:43;50.15;;;5.00;;
9934;SDS011;5006;41.828;23.478;2022-11-18T03:18:56;42.90;;;5.78;;
9934;SDS011;5006;41.828;23.478;2022-11-18T03:20:09;64.20;;;5.97;;
9934;SDS011;5006;41.828;23.478;2022-11-18T03:21:23;52.30;;;6.78;;
9934;SDS011;5006;41.828;23.478;2022-11-18T03:22:35;70.80;;;7.32;;
9934;SDS011;5006;41.828;23.478;2022-11-18T03:23:46;67.88;;;6.93;;
9934;SDS011;5006;41.828;23.478;2022-11-18T03:24:59;50.75;;;6.10;;
9934;SDS011;5006;41.828;23.478;2022-11-18T03:26:10;84.05;;;8.40;;
9934;SDS011;5006;41.828;23.478;2022-11-18T03:27:17;117.28;;;11.20;;
9934;SDS011;5006;41.828;23.478;2022-11-18T03:28:29;76.60;;;7.80;;
9934;SDS011;5006;41.828;23.478;2022-11-18T03:29:40;95.72;;;8.60;;
9934;SDS011;5006;41.828;23.478;2022-11-18T03:30:49;84.50;;;8.10;;
9934;SDS011;5006;41.828;23.478;2022-11-18T03:32:03;60.05;;;6.50;;
9934;SDS011;5006;41.828;23.478;2022-11-18T03:33:15;37.13;;;5.50;;
9934;SDS011;5006;41.828;23.478;2022-11-18T03:34:26;39.33;;;5.57;;
9934;SDS011;5006;41.828;23.478;2022-11-18T03:35:34;24.02;;;5.10;;
9934;SDS011;5006;41.828;23.478;2022-11-18T03:36:44;126.75;;;8.57;;
9934;SDS011;5006;41.828;23.478;2022-11-18T03:37:56;97.63;;;8.60;;
9934;SDS011;5006;41.828;23.478;2022-11-18T03:39:05;73.25;;;8.85;;
9934;SDS011;5006;41.828;23.478;2022-11-18T03:40:15;145.38;;;9.25;;
9934;SDS011;5006;41.828;23.478;2022-11-18T03:41:23;85.50;;;7.10;;
9934;SDS011;5006;41.828;23.478;2022-11-18T03:42:34;97.35;;;9.02;;
9934;SDS011;5006;41.828;23.478;2022-11-18T03:43:42;112.05;;;7.75;;
9934;SDS011;5006;41.828;23.478;2022-11-18T03:44:53;108.13;;;7.82;;
9934;SDS011;5006;41.828;23.478;2022-11-18T03:46:04;66.93;;;6.75;;
9934;SDS011;5006;41.828;23.478;2022-11-18T03:47:15;80.53;;;7.88;;
9934;SDS011;5006;41.828;23.478;2022-11-18T03:48:25;92.70;;;7.22;;
9934;SDS011;5006;41.828;23.478;2022-11-18T03:49:36;113.25;;;8.30;;
9934;SDS011;5006;41.828;23.478;2022-11-18T03:50:45;101.38;;;9.05;;
9934;SDS011;5006;41.828;23.478;2022-11-18T03:51:55;113.65;;;9.88;;
9934;SDS011;5006;41.828;23.478;2022-11-18T03:53:05;109.57;;;10.40;;
9934;SDS011;5006;41.828;23.478;2022-11-18T03:54:14;84.07;;;8.40;;
9934;SDS011;5006;41.828;23.478;2022-11-18T03:55:24;86.55;;;8.88;;
9934;SDS011;5006;41.828;23.478;2022-11-18T03:56:35;75.75;;;8.85;;
9934;SDS011;5006;41.828;23.478;2022-11-18T03:57:47;100.90;;;10.40;;
9934;SDS011;5006;41.828;23.478;2022-11-18T03:58:59;54.83;;;7.53;;
9934;SDS011;5006;41.828;23.478;2022-11-18T04:00:08;37.30;;;5.90;;
9934;SDS011;5006;41.828;23.478;2022-11-18T04:01:18;53.40;;;6.38;;
9934;SDS011;5006;41.828;23.478;2022-11-18T04:02:30;46.58;;;6.00;;
9934;SDS011;5006;41.828;23.478;2022-11-18T04:03:36;37.97;;;5.82;;
9934;SDS011;5006;41.828;23.478;2022-11-18T04:04:41;59.35;;;6.68;;
9934;SDS011;5006;41.828;23.478;2022-11-18T04:05:49;64.30;;;6.80;;
9934;SDS011;5006;41.828;23.478;2022-11-18T04:07:01;53.28;;;6.03;;
9934;SDS011;5006;41.828;23.478;2022-11-18T04:08:12;46.42;;;5.63;;
9934;SDS011;5006;41.828;23.478;2022-11-18T04:09:23;50.63;;;6.40;;
9934;SDS011;5006;41.828;23.478;2022-11-18T04:10:34;46.42;;;5.93;;
9934;SDS011;5006;41.828;23.478;2022-11-18T04:11:43;29.27;;;4.90;;
9934;SDS011;5006;41.828;23.478;2022-11-18T04:13:08;37.25;;;5.00;;
9934;SDS011;5006;41.828;23.478;2022-11-18T04:14:18;49.92;;;6.03;;
9934;SDS011;5006;41.828;23.478;2022-11-18T04:15:24;70.85;;;7.05;;
9934;SDS011;5006;41.828;23.478;2022-11-18T04:16:29;65.97;;;7.22;;
9934;SDS011;5006;41.828;23.478;2022-11-18T04:17:39;37.25;;;5.55;;
9934;SDS011;5006;41.828;23.478;2022-11-18T04:18:44;60.95;;;6.03;;
9934;SDS011;5006;41.828;23.478;2022-11-18T04:19:49;35.33;;;5.40;;
9934;SDS011;5006;41.828;23.478;2022-11-18T04:20:54;44.03;;;5.63;;
9934;SDS011;5006;41.828;23.478;2022-11-18T04:22:00;68.28;;;6.35;;
9934;SDS011;5006;41.828;23.478;2022-11-18T04:23:05;70.25;;;6.75;;
9934;SDS011;5006;41.828;23.478;2022-11-18T04:24:12;73.47;;;6.68;;
9934;SDS011;5006;41.828;23.478;2022-11-18T04:25:16;60.50;;;6.10;;
9934;SDS011;5006;41.828;23.478;2022-11-18T04:26:22;45.95;;;5.97;;
9934;SDS011;5006;41.828;23.478;2022-11-18T04:27:27;65.82;;;5.88;;
9934;SDS011;5006;41.828;23.478;2022-11-18T04:28:33;59.97;;;5.93;;
9934;SDS011;5006;41.828;23.478;2022-11-18T04:29:38;67.50;;;6.32;;
9934;SDS011;5006;41.828;23.478;2022-11-18T04:30:43;101.32;;;7.55;;
9934;SDS011;5006;41.828;23.478;2022-11-18T04:31:49;70.85;;;5.88;;
9934;SDS011;5006;41.828;23.478;2022-11-18T04:32:55;69.63;;;5.90;;
9934;SDS011;5006;41.828;23.478;2022-11-18T04:34:01;83.57;;;5.88;;
9934;SDS011;5006;41.828;23.478;2022-11-18T04:35:06;86.75;;;5.38;;
9934;SDS011;5006;41.828;23.478;2022-11-18T04:36:11;65.68;;;6.22;;
9934;SDS011;5006;41.828;23.478;2022-11-18T04:37:16;71.18;;;7.28;;
9934;SDS011;5006;41.828;23.478;2022-11-18T04:38:22;72.82;;;8.90;;
9934;SDS011;5006;41.828;23.478;2022-11-18T04:39:27;80.93;;;7.28;;
9934;SDS011;5006;41.828;23.478;2022-11-18T04:40:33;69.78;;;6.03;;
9934;SDS011;5006;41.828;23.478;2022-11-18T04:41:39;44.80;;;5.70;;
9934;SDS011;5006;41.828;23.478;2022-11-18T04:42:58;41.50;;;4.95;;
9934;SDS011;5006;41.828;23.478;2022-11-18T04:44:04;40.85;;;4.55;;
9934;SDS011;5006;41.828;23.478;2022-11-18T04:45:15;58.38;;;5.40;;
9934;SDS011;5006;41.828;23.478;2022-11-18T04:46:21;35.75;;;5.22;;
9934;SDS011;5006;41.828;23.478;2022-11-18T04:47:25;50.28;;;5.60;;
9934;SDS011;5006;41.828;23.478;2022-11-18T04:48:33;35.90;;;4.90;;
9934;SDS011;5006;41.828;23.478;2022-11-18T04:49:38;60.33;;;6.00;;
9934;SDS011;5006;41.828;23.478;2022-11-18T04:50:44;55.47;;;5.45;;
9934;SDS011;5006;41.828;23.478;2022-11-18T04:51:49;41.25;;;5.28;;
9934;SDS011;5006;41.828;23.478;2022-11-18T04:52:55;54.75;;;5.10;;
9934;SDS011;5006;41.828;23.478;2022-11-18T04:54:00;56.13;;;5.47;;
9934;SDS011;5006;41.828;23.478;2022-11-18T04:55:06;48.95;;;4.72;;
9934;SDS011;5006;41.828;23.478;2022-11-18T04:56:12;71.63;;;6.82;;
9934;SDS011;5006;41.828;23.478;2022-11-18T04:57:16;57.97;;;5.65;;
9934;SDS011;5006;41.828;23.478;2022-11-18T04:58:23;66.50;;;6.45;;
9934;SDS011;5006;41.828;23.478;2022-11-18T04:59:28;44.55;;;4.97;;
9934;SDS011;5006;41.828;23.478;2022-11-18T05:00:34;44.13;;;4.45;;
9934;SDS011;5006;41.828;23.478;2022-11-18T05:01:39;52.30;;;4.63;;
9934;SDS011;5006;41.828;23.478;2022-11-18T05:02:45;67.18;;;5.10;;
9934;SDS011;5006;41.828;23.478;2022-11-18T05:03:51;33.95;;;5.13;;
9934;SDS011;5006;41.828;23.478;2022-11-18T05:04:56;66.97;;;5.97;;
9934;SDS011;5006;41.828;23.478;2022-11-18T05:06:02;76.45;;;6.32;;
9934;SDS011;5006;41.828;23.478;2022-11-18T05:07:07;86.88;;;6.97;;
9934;SDS011;5006;41.828;23.478;2022-11-18T05:08:16;82.47;;;6.93;;
9934;SDS011;5006;41.828;23.478;2022-11-18T05:09:21;89.00;;;7.15;;
9934;SDS011;5006;41.828;23.478;2022-11-18T05:10:27;74.57;;;7.05;;
9934;SDS011;5006;41.828;23.478;2022-11-18T05:11:31;63.70;;;6.95;;
9934;SDS011;5006;41.828;23.478;2022-11-18T05:12:54;57.75;;;5.82;;
9934;SDS011;5006;41.828;23.478;2022-11-18T05:14:00;59.10;;;6.05;;
9934;SDS011;5006;41.828;23.478;2022-11-18T05:15:05;43.67;;;5.72;;
9934;SDS011;5006;41.828;23.478;2022-11-18T05:16:12;81.93;;;7.22;;
9934;SDS011;5006;41.828;23.478;2022-11-18T05:17:16;61.15;;;6.20;;
9934;SDS011;5006;41.828;23.478;2022-11-18T05:18:22;37.83;;;5.18;;
9934;SDS011;5006;41.828;23.478;2022-11-18T05:19:28;73.30;;;6.05;;
9934;SDS011;5006;41.828;23.478;2022-11-18T05:20:34;53.92;;;4.80;;
9934;SDS011;5006;41.828;23.478;2022-11-18T05:21:41;49.28;;;5.57;;
9934;SDS011;5006;41.828;23.478;2022-11-18T05:22:47;47.15;;;5.50;;
9934;SDS011;5006;41.828;23.478;2022-11-18T05:23:52;51.42;;;5.85;;
9934;SDS011;5006;41.828;23.478;2022-11-18T05:24:57;51.58;;;6.10;;
9934;SDS011;5006;41.828;23.478;2022-11-18T05:26:03;59.47;;;6.60;;
9934;SDS011;5006;41.828;23.478;2022-11-18T05:27:08;67.13;;;7.18;;
9934;SDS011;5006;41.828;23.478;2022-11-18T05:28:13;89.68;;;8.18;;
9934;SDS011;5006;41.828;23.478;2022-11-18T05:29:18;109.10;;;7.70;;
9934;SDS011;5006;41.828;23.478;2022-11-18T05:30:24;92.07;;;7.18;;
9934;SDS011;5006;41.828;23.478;2022-11-18T05:31:29;103.60;;;7.90;;
9934;SDS011;5006;41.828;23.478;2022-11-18T05:32:34;108.18;;;9.05;;
9934;SDS011;5006;41.828;23.478;2022-11-18T05:33:40;74.68;;;6.63;;
9934;SDS011;5006;41.828;23.478;2022-11-18T05:34:47;104.97;;;8.73;;
9934;SDS011;5006;41.828;23.478;2022-11-18T05:35:53;61.67;;;5.90;;
9934;SDS011;5006;41.828;23.478;2022-11-18T05:36:57;63.83;;;7.10;;
9934;SDS011;5006;41.828;23.478;2022-11-18T05:38:04;73.32;;;7.25;;
9934;SDS011;5006;41.828;23.478;2022-11-18T05:39:09;76.00;;;6.80;;
9934;SDS011;5006;41.828;23.478;2022-11-18T05:40:14;76.65;;;8.30;;
9934;SDS011;5006;41.828;23.478;2022-11-18T05:41:20;83.88;;;8.57;;
9934;SDS011;5006;41.828;23.478;2022-11-18T05:42:43;68.97;;;6.95;;
9934;SDS011;5006;41.828;23.478;2022-11-18T05:44:06;43.35;;;6.32;;
9934;SDS011;5006;41.828;23.478;2022-11-18T05:45:12;95.93;;;12.02;;
9934;SDS011;5006;41.828;23.478;2022-11-18T05:46:16;68.30;;;9.98;;
9934;SDS011;5006;41.828;23.478;2022-11-18T05:47:22;99.78;;;8.65;;
9934;SDS011;5006;41.828;23.478;2022-11-18T05:48:27;66.53;;;8.85;;
9934;SDS011;5006;41.828;23.478;2022-11-18T05:49:33;101.30;;;8.80;;
9934;SDS011;5006;41.828;23.478;2022-11-18T05:50:39;89.10;;;9.57;;
9934;SDS011;5006;41.828;23.478;2022-11-18T05:51:45;84.63;;;22.58;;
9934;SDS011;5006;41.828;23.478;2022-11-18T05:52:50;33.28;;;6.50;;
9934;SDS011;5006;41.828;23.478;2022-11-18T05:53:56;18.95;;;4.05;;
9934;SDS011;5006;41.828;23.478;2022-11-18T05:55:01;71.10;;;6.45;;
9934;SDS011;5006;41.828;23.478;2022-11-18T05:56:10;68.00;;;6.35;;
9934;SDS011;5006;41.828;23.478;2022-11-18T05:57:21;56.88;;;7.07;;
9934;SDS011;5006;41.828;23.478;2022-11-18T05:58:27;37.85;;;6.40;;
9934;SDS011;5006;41.828;23.478;2022-11-18T05:59:33;34.25;;;6.13;;
9934;SDS011;5006;41.828;23.478;2022-11-18T06:00:38;44.33;;;7.13;;
9934;SDS011;5006;41.828;23.478;2022-11-18T06:01:44;53.00;;;8.23;;
9934;SDS011;5006;41.828;23.478;2022-11-18T06:02:53;55.40;;;7.15;;
9934;SDS011;5006;41.828;23.478;2022-11-18T06:03:59;42.85;;;8.45;;
9934;SDS011;5006;41.828;23.478;2022-11-18T06:05:12;45.78;;;7.05;;
9934;SDS011;5006;41.828;23.478;2022-11-18T06:06:19;36.47;;;6.78;;
9934;SDS011;5006;41.828;23.478;2022-11-18T06:07:27;73.00;;;8.55;;
9934;SDS011;5006;41.828;23.478;2022-11-18T06:08:36;77.10;;;11.00;;
9934;SDS011;5006;41.828;23.478;2022-11-18T06:09:46;73.45;;;21.00;;
9934;SDS011;5006;41.828;23.478;2022-11-18T06:10:53;41.17;;;13.73;;
9934;SDS011;5006;41.828;23.478;2022-11-18T06:11:59;28.10;;;8.40;;
9934;SDS011;5006;41.828;23.478;2022-11-18T06:13:07;43.60;;;8.52;;
9934;SDS011;5006;41.828;23.478;2022-11-18T06:14:15;98.88;;;11.07;;
9934;SDS011;5006;41.828;23.478;2022-11-18T06:15:25;78.50;;;11.23;;
9934;SDS011;5006;41.828;23.478;2022-11-18T06:16:31;68.88;;;13.73;;
9934;SDS011;5006;41.828;23.478;2022-11-18T06:17:39;69.78;;;12.05;;
9934;SDS011;5006;41.828;23.478;2022-11-18T06:18:48;44.83;;;9.15;;
9934;SDS011;5006;41.828;23.478;2022-11-18T06:19:53;49.65;;;11.07;;
9934;SDS011;5006;41.828;23.478;2022-11-18T06:21:00;43.20;;;11.48;;
9934;SDS011;5006;41.828;23.478;2022-11-18T06:22:09;81.07;;;14.40;;
9934;SDS011;5006;41.828;23.478;2022-11-18T06:23:15;86.65;;;14.95;;
9934;SDS011;5006;41.828;23.478;2022-11-18T06:24:20;80.45;;;15.35;;
9934;SDS011;5006;41.828;23.478;2022-11-18T06:25:25;81.78;;;15.68;;
9934;SDS011;5006;41.828;23.478;2022-11-18T06:26:30;60.80;;;14.68;;
9934;SDS011;5006;41.828;23.478;2022-11-18T06:27:36;91.32;;;14.20;;
9934;SDS011;5006;41.828;23.478;2022-11-18T06:28:40;58.47;;;11.98;;
9934;SDS011;5006;41.828;23.478;2022-11-18T06:29:48;48.80;;;11.10;;
9934;SDS011;5006;41.828;23.478;2022-11-18T06:30:53;42.35;;;10.95;;
9934;SDS011;5006;41.828;23.478;2022-11-18T06:31:58;71.88;;;11.32;;
9934;SDS011;5006;41.828;23.478;2022-11-18T06:33:04;86.05;;;11.98;;
9934;SDS011;5006;41.828;23.478;2022-11-18T06:34:08;170.25;;;18.88;;
9934;SDS011;5006;41.828;23.478;2022-11-18T06:35:14;146.70;;;14.88;;
9934;SDS011;5006;41.828;23.478;2022-11-18T06:36:18;165.05;;;15.10;;
9934;SDS011;5006;41.828;23.478;2022-11-18T06:37:25;123.63;;;15.23;;
9934;SDS011;5006;41.828;23.478;2022-11-18T06:38:31;117.90;;;18.08;;
9934;SDS011;5006;41.828;23.478;2022-11-18T06:39:37;147.23;;;23.15;;
9934;SDS011;5006;41.828;23.478;2022-11-18T06:40:42;152.95;;;18.73;;
9934;SDS011;5006;41.828;23.478;2022-11-18T06:41:51;273.25;;;19.63;;
9934;SDS011;5006;41.828;23.478;2022-11-18T06:42:56;244.20;;;19.70;;
9934;SDS011;5006;41.828;23.478;2022-11-18T06:44:18;293.90;;;25.23;;
9934;SDS011;5006;41.828;23.478;2022-11-18T06:45:24;287.02;;;20.85;;
9934;SDS011;5006;41.828;23.478;2022-11-18T06:46:28;265.95;;;22.73;;
9934;SDS011;5006;41.828;23.478;2022-11-18T06:47:55;249.88;;;22.13;;